Time;durP1;ratioP1;P1;durP2;ratioP2;P2;SDS_P1;SDS_P2;PMS_P1;PMS_P2;Temp;Humidity;BMP_temperature;BMP_pressure;BME280_temperature;BME280_humidity;BME280_pressure;Samples;Min_cycle;Max_cycle;Signal;HPM_P1;HPM_P2
2022/10/13 00:00:26;;;;;;;17.25;8.20;;;12.60;80.80;;;;;;5080158;28;20032;-70
2022/10/13 00:02:53;;;;;;;17.95;8.73;;;12.60;81.80;;;;;;5080083;28;20364;-70
2022/10/13 00:05:19;;;;;;;17.83;7.60;;;12.60;80.90;;;;;;5096736;28;20024;-70
2022/10/13 00:07:44;;;;;;;16.45;7.32;;;12.60;80.90;;;;;;5096710;28;20032;-70
2022/10/13 00:10:10;;;;;;;19.80;8.05;;;12.60;80.90;;;;;;5114574;28;20032;-70
2022/10/13 00:12:38;;;;;;;16.80;7.57;;;12.60;80.90;;;;;;5096598;28;20036;-70
2022/10/13 00:15:06;;;;;;;20.17;7.78;;;12.60;80.90;;;;;;5114506;28;20032;-70
2022/10/13 00:17:32;;;;;;;15.68;7.40;;;12.60;81.00;;;;;;5114422;28;20020;-70
2022/10/13 00:19:58;;;;;;;19.45;8.60;;;12.70;81.50;;;;;;5114432;28;20079;-70
2022/10/13 00:22:26;;;;;;;17.45;8.50;;;12.70;81.30;;;;;;5079678;28;20046;-70
2022/10/13 00:24:52;;;;;;;16.13;7.57;;;12.60;81.50;;;;;;5114320;28;20027;-70
2022/10/13 00:27:18;;;;;;;16.67;7.32;;;12.70;81.30;;;;;;5096304;28;20111;-70
2022/10/13 00:29:44;;;;;;;19.88;7.93;;;12.70;81.50;;;;;;5114183;28;20027;-70
2022/10/13 00:32:10;;;;;;;21.15;8.90;;;12.70;81.40;;;;;;5114141;28;20395;-69
2022/10/13 00:34:36;;;;;;;21.10;9.07;;;12.70;81.30;;;;;;5096353;28;20020;-70
2022/10/13 00:37:02;;;;;;;21.73;7.88;;;12.70;81.60;;;;;;5096305;28;20055;-70
2022/10/13 00:39:28;;;;;;;14.55;7.30;;;12.70;81.50;;;;;;5096356;28;20031;-70
2022/10/13 00:41:54;;;;;;;21.27;7.93;;;12.80;81.90;;;;;;5114052;28;20080;-70
2022/10/13 00:44:54;;;;;;;21.40;7.72;;;12.70;81.70;;;;;;5096350;28;20020;-70
2022/10/13 00:47:20;;;;;;;17.02;8.30;;;12.70;81.70;;;;;;5096029;28;20025;-70
2022/10/13 00:49:47;;;;;;;17.42;8.38;;;12.70;81.90;;;;;;5113922;28;20031;-70
2022/10/13 00:52:14;;;;;;;18.38;8.20;;;12.70;82.10;;;;;;5113803;28;20110;-70
2022/10/13 00:54:40;;;;;;;15.50;7.95;;;12.80;82.20;;;;;;5096177;28;20031;-70
2022/10/13 00:57:07;;;;;;;17.00;8.00;;;12.80;82.20;;;;;;5095672;28;20111;-70
2022/10/13 00:59:34;;;;;;;13.23;7.75;;;12.80;82.30;;;;;;5095871;28;20062;-70
2022/10/13 01:02:01;;;;;;;17.75;7.88;;;12.80;82.30;;;;;;5113735;28;20052;-70
2022/10/13 01:04:40;;;;;;;16.15;7.82;;;12.80;82.50;;;;;;5095789;28;20012;-70
2022/10/13 01:07:06;;;;;;;16.38;7.43;;;12.80;83.20;;;;;;5113719;28;20099;-70
2022/10/13 01:09:36;;;;;;;20.10;8.52;;;12.80;82.60;;;;;;5095796;28;20028;-69
2022/10/13 01:12:21;;;;;;;12.82;7.05;;;12.80;82.50;;;;;;5079464;28;20032;-70
2022/10/13 01:15:05;;;;;;;14.90;7.78;;;12.80;82.20;;;;;;5113575;28;20020;-70
2022/10/13 01:18:00;;;;;;;17.58;7.40;;;12.80;82.60;;;;;;5113643;28;20024;-70
2022/10/13 01:20:40;;;;;;;15.43;8.50;;;12.80;82.60;;;;;;5113585;28;20050;-69
2022/10/13 01:23:17;;;;;;;17.85;7.72;;;12.80;82.70;;;;;;5099642;28;20028;-70
2022/10/13 01:25:51;;;;;;;17.65;8.93;;;12.80;82.60;;;;;;5120310;28;20103;-70
2022/10/13 01:29:11;;;;;;;18.67;8.57;;;12.80;83.00;;;;;;5120333;28;20034;-69
2022/10/13 01:31:53;;;;;;;14.63;7.55;;;12.80;83.10;;;;;;5058029;28;20033;-70
2022/10/13 01:34:54;;;;;;;18.47;7.87;;;12.70;83.10;;;;;;5120267;28;20024;-70
2022/10/13 01:37:33;;;;;;;16.00;7.70;;;12.70;83.00;;;;;;5120283;28;20047;-70
2022/10/13 01:40:37;;;;;;;19.63;8.13;;;12.70;83.10;;;;;;5102306;28;20020;-70
2022/10/13 01:43:10;;;;;;;18.35;8.00;;;12.80;83.20;;;;;;5071420;28;20104;-70
2022/10/13 01:45:54;;;;;;;17.33;7.88;;;12.80;83.30;;;;;;5120097;28;20051;-70
2022/10/13 01:48:20;;;;;;;15.35;7.32;;;12.80;83.10;;;;;;5120118;28;20020;-69
2022/10/13 01:50:47;;;;;;;16.95;7.45;;;12.80;83.10;;;;;;5120055;28;20032;-69
2022/10/13 01:53:14;;;;;;;16.52;7.50;;;12.80;83.30;;;;;;5119924;28;20024;-70
2022/10/13 01:55:53;;;;;;;14.98;7.63;;;12.80;83.40;;;;;;5120004;28;20025;-70
2022/10/13 01:58:20;;;;;;;15.02;7.63;;;12.80;83.40;;;;;;5102508;28;20028;-69
2022/10/13 02:01:12;;;;;;;15.70;7.82;;;12.80;83.40;;;;;;5119957;28;20022;-70
2022/10/13 02:03:50;;;;;;;12.32;7.07;;;12.90;83.30;;;;;;5119977;28;20028;-69
2022/10/13 02:06:30;;;;;;;17.52;7.82;;;12.90;83.30;;;;;;5119900;28;20067;-70
2022/10/13 02:09:11;;;;;;;18.65;7.60;;;12.90;83.20;;;;;;5119924;28;20051;-70
2022/10/13 02:11:42;;;;;;;18.85;7.70;;;12.90;83.40;;;;;;5120047;28;20020;-70
2022/10/13 02:14:16;;;;;;;15.85;6.78;;;12.90;83.30;;;;;;5119814;28;20020;-70
2022/10/13 02:16:45;;;;;;;14.18;7.28;;;13.00;83.20;;;;;;5119987;28;20020;-69
2022/10/13 02:19:14;;;;;;;14.88;7.68;;;13.00;83.30;;;;;;5119774;28;20059;-70
2022/10/13 02:21:40;;;;;;;15.88;7.07;;;13.00;83.00;;;;;;5119831;28;20024;-70
2022/10/13 02:24:07;;;;;;;15.05;7.43;;;13.00;83.00;;;;;;5101840;28;20040;-70
2022/10/13 02:26:34;;;;;;;18.45;7.57;;;13.00;83.20;;;;;;5119724;28;20051;-70
2022/10/13 02:29:08;;;;;;;18.13;7.78;;;13.10;83.20;;;;;;5101746;28;20031;-70
2022/10/13 02:31:33;;;;;;;14.23;7.00;;;13.10;83.10;;;;;;5119709;28;20020;-69
2022/10/13 02:33:59;;;;;;;15.55;7.93;;;13.10;83.10;;;;;;5099208;28;20061;-69
2022/10/13 02:36:24;;;;;;;17.02;7.32;;;13.20;83.20;;;;;;5116451;28;20081;-70
2022/10/13 02:38:50;;;;;;;17.90;7.00;;;13.20;83.10;;;;;;5081759;28;20028;-70
2022/10/13 02:41:15;;;;;;;13.55;6.63;;;13.20;83.10;;;;;;5098524;28;20119;-70
2022/10/13 02:43:41;;;;;;;17.17;7.15;;;13.20;83.20;;;;;;5098474;28;20036;-70
2022/10/13 02:46:07;;;;;;;16.45;7.65;;;13.20;83.40;;;;;;5116264;28;20036;-69
2022/10/13 02:48:32;;;;;;;17.98;7.43;;;13.20;83.20;;;;;;5116357;28;20035;-69
2022/10/13 02:50:58;;;;;;;13.52;7.00;;;13.30;83.30;;;;;;5098392;28;20028;-70
2022/10/13 02:53:23;;;;;;;17.38;7.00;;;13.30;83.10;;;;;;5116060;28;20034;-70
2022/10/13 02:55:49;;;;;;;15.98;7.65;;;13.20;83.30;;;;;;5081480;28;20024;-69
2022/10/13 02:58:14;;;;;;;14.57;7.20;;;13.30;83.10;;;;;;5098029;28;20044;-69
2022/10/13 03:00:40;;;;;;;16.85;7.82;;;13.30;82.90;;;;;;5116112;28;20467;-70
2022/10/13 03:03:06;;;;;;;15.32;7.55;;;13.40;82.70;;;;;;5098043;28;20023;-70
2022/10/13 03:05:31;;;;;;;16.90;7.78;;;13.40;82.60;;;;;;5115860;28;20036;-70
2022/10/13 03:07:57;;;;;;;14.50;7.53;;;13.40;82.70;;;;;;5098009;28;20024;-69
2022/10/13 03:10:23;;;;;;;16.30;7.60;;;13.40;82.60;;;;;;5115799;28;20024;-70
2022/10/13 03:12:48;;;;;;;14.80;7.20;;;13.30;82.60;;;;;;5115690;28;20031;-69
2022/10/13 03:15:14;;;;;;;14.80;7.20;;;13.40;82.90;;;;;;5115678;28;20059;-70
2022/10/13 03:17:40;;;;;;;13.55;7.38;;;13.30;82.70;;;;;;5081097;28;20019;-70
2022/10/13 03:20:06;;;;;;;13.48;7.95;;;13.30;82.90;;;;;;5115617;28;20064;-70
2022/10/13 03:22:32;;;;;;;14.85;7.30;;;13.30;82.90;;;;;;5097628;28;20059;-70
2022/10/13 03:24:58;;;;;;;15.65;7.65;;;13.30;83.00;;;;;;5097579;28;20034;-70
2022/10/13 03:27:24;;;;;;;14.77;7.05;;;13.30;83.10;;;;;;5097524;28;20028;-70
2022/10/13 03:29:49;;;;;;;13.48;7.07;;;13.20;83.10;;;;;;5115354;28;20058;-70
2022/10/13 03:32:15;;;;;;;18.20;7.43;;;13.20;83.20;;;;;;5080668;28;20043;-69
2022/10/13 03:34:41;;;;;;;14.90;7.68;;;13.30;83.30;;;;;;5115346;28;20024;-70
2022/10/13 03:37:07;;;;;;;19.48;6.93;;;13.30;83.30;;;;;;5097339;28;20032;-70
2022/10/13 03:39:32;;;;;;;17.95;7.38;;;13.20;83.20;;;;;;5080533;28;20020;-70
2022/10/13 03:41:58;;;;;;;17.02;7.53;;;13.20;83.50;;;;;;5115156;28;20053;-70
2022/10/13 03:44:23;;;;;;;18.50;7.25;;;13.10;83.50;;;;;;5115133;28;20039;-70
2022/10/13 03:46:49;;;;;;;19.13;6.63;;;13.20;83.50;;;;;;5114754;28;20028;-69
2022/10/13 03:49:16;;;;;;;15.43;8.32;;;13.20;83.40;;;;;;5115053;28;20017;-69
2022/10/13 03:51:41;;;;;;;15.95;6.97;;;13.10;83.50;;;;;;5097021;28;20092;-69
2022/10/13 03:54:11;;;;;;;14.80;6.57;;;13.10;83.80;;;;;;5114844;28;20043;-70
2022/10/13 03:56:38;;;;;;;13.57;6.95;;;13.10;83.90;;;;;;5096782;28;20032;-69
2022/10/13 03:59:04;;;;;;;18.95;7.45;;;13.10;83.70;;;;;;5114856;28;20016;-70
2022/10/13 04:01:31;;;;;;;21.75;8.48;;;13.10;83.80;;;;;;5114800;28;20020;-70
2022/10/13 04:03:58;;;;;;;13.98;6.80;;;13.10;84.50;;;;;;5114756;28;20551;-69
2022/10/13 04:06:25;;;;;;;12.52;7.28;;;13.10;84.50;;;;;;5080058;28;20028;-69
2022/10/13 04:08:50;;;;;;;15.43;6.70;;;13.10;83.70;;;;;;5114665;28;20039;-70
2022/10/13 04:11:17;;;;;;;14.35;7.45;;;13.10;84.00;;;;;;5114597;28;20036;-70
2022/10/13 04:13:44;;;;;;;16.75;7.60;;;13.10;84.00;;;;;;5096527;28;20020;-70
2022/10/13 04:16:16;;;;;;;14.00;6.22;;;13.10;84.00;;;;;;5114466;28;20020;-70
2022/10/13 04:18:42;;;;;;;17.15;7.72;;;13.00;84.20;;;;;;5114480;28;20035;-70
2022/10/13 04:21:09;;;;;;;15.77;6.97;;;13.10;84.10;;;;;;5114434;28;20106;-70
2022/10/13 04:23:35;;;;;;;12.70;6.78;;;13.00;84.10;;;;;;5114403;28;20028;-70
2022/10/13 04:26:02;;;;;;;16.50;7.35;;;13.00;84.00;;;;;;5114352;28;20036;-70
2022/10/13 04:28:27;;;;;;;11.93;6.45;;;13.10;84.30;;;;;;5096333;28;20039;-69
2022/10/13 04:30:53;;;;;;;16.38;6.97;;;13.00;84.40;;;;;;5096218;28;20033;-69
2022/10/13 04:33:18;;;;;;;19.55;7.70;;;13.00;84.40;;;;;;5096368;28;20032;-70
2022/10/13 04:35:44;;;;;;;14.00;6.75;;;13.00;84.60;;;;;;5114154;28;20043;-70
2022/10/13 04:38:09;;;;;;;18.55;8.95;;;13.00;84.40;;;;;;5114137;28;20050;-70
2022/10/13 04:40:35;;;;;;;14.93;7.28;;;13.00;84.60;;;;;;5114075;28;20035;-69
2022/10/13 04:43:01;;;;;;;13.57;6.72;;;13.00;84.70;;;;;;5114053;28;20047;-70
2022/10/13 04:45:27;;;;;;;16.08;6.82;;;13.00;84.50;;;;;;5079359;28;20032;-69
2022/10/13 04:47:52;;;;;;;17.70;7.53;;;13.00;84.50;;;;;;5113960;28;20028;-70
2022/10/13 04:50:18;;;;;;;13.57;7.05;;;13.00;84.50;;;;;;5096289;28;20028;-70
2022/10/13 04:52:44;;;;;;;13.57;7.03;;;13.10;84.50;;;;;;5113752;28;20020;-70
2022/10/13 04:55:10;;;;;;;19.95;7.65;;;13.10;84.40;;;;;;5095999;28;20025;-70
2022/10/13 04:57:36;;;;;;;13.40;7.20;;;13.10;84.40;;;;;;5112910;28;20052;-70
2022/10/13 05:00:03;;;;;;;15.90;6.80;;;13.10;84.40;;;;;;5113781;28;20024;-70
2022/10/13 05:02:29;;;;;;;14.65;6.75;;;13.10;84.30;;;;;;5113706;28;20044;-70
2022/10/13 05:04:54;;;;;;;13.80;7.22;;;13.20;84.40;;;;;;5113702;28;20047;-70
2022/10/13 05:07:20;;;;;;;15.43;6.90;;;13.10;84.20;;;;;;5095865;28;20025;-70
2022/10/13 05:09:45;;;;;;;17.50;8.00;;;13.10;84.50;;;;;;5095842;28;20139;-70
2022/10/13 05:12:11;;;;;;;14.43;6.72;;;13.20;85.50;;;;;;5095777;28;20035;-70
2022/10/13 05:14:36;;;;;;;14.85;7.05;;;13.10;84.30;;;;;;5095810;28;20036;-70
2022/10/13 05:17:02;;;;;;;16.25;7.05;;;13.10;84.60;;;;;;5095912;28;20028;-70
2022/10/13 05:19:28;;;;;;;17.17;7.75;;;13.10;84.40;;;;;;5113554;28;20051;-70
2022/10/13 05:21:53;;;;;;;14.40;7.40;;;13.20;84.30;;;;;;5095764;28;20076;-70
2022/10/13 05:24:29;;;;;;;15.50;7.30;;;13.20;84.10;;;;;;5095745;28;20567;-70
2022/10/13 05:26:55;;;;;;;14.63;7.45;;;13.20;84.10;;;;;;5097245;28;20024;-70
2022/10/13 05:29:21;;;;;;;14.45;7.13;;;13.20;84.10;;;;;;5095513;28;20486;-69
2022/10/13 05:31:47;;;;;;;14.70;6.43;;;13.20;84.10;;;;;;5095730;28;20028;-69
2022/10/13 05:34:12;;;;;;;17.77;7.70;;;13.20;84.10;;;;;;5113313;28;20074;-69
2022/10/13 05:36:38;;;;;;;14.75;7.22;;;13.20;84.00;;;;;;5095650;28;20064;-69
2022/10/13 05:39:08;;;;;;;14.38;7.55;;;13.20;83.90;;;;;;5113451;28;20051;-69
2022/10/13 05:41:34;;;;;;;18.58;8.00;;;13.20;83.70;;;;;;5113507;28;20046;-68
2022/10/13 05:44:03;;;;;;;13.18;7.13;;;13.20;83.60;;;;;;5113312;28;20096;-69
2022/10/13 05:46:28;;;;;;;16.92;7.70;;;13.20;83.70;;;;;;5113322;28;20024;-69
2022/10/13 05:48:54;;;;;;;17.17;7.15;;;13.20;83.70;;;;;;5113226;28;20024;-69
2022/10/13 05:51:23;;;;;;;14.38;7.50;;;13.20;83.80;;;;;;5113227;28;20028;-69
2022/10/13 05:53:53;;;;;;;13.52;7.65;;;13.20;83.80;;;;;;5113180;28;20082;-69
2022/10/13 05:56:24;;;;;;;15.77;8.25;;;13.20;83.80;;;;;;5113106;28;20040;-69
2022/10/13 05:58:56;;;;;;;15.65;7.63;;;13.20;84.00;;;;;;5113016;28;20035;-69
2022/10/13 06:01:25;;;;;;;19.10;8.32;;;13.20;84.00;;;;;;5113351;28;20020;-69
2022/10/13 06:03:54;;;;;;;19.02;8.73;;;13.20;84.10;;;;;;5113135;28;20028;-69
2022/10/13 06:06:22;;;;;;;19.08;8.25;;;13.20;84.10;;;;;;5113092;28;20093;-69
2022/10/13 06:08:49;;;;;;;16.90;7.35;;;13.20;84.00;;;;;;5114476;28;20016;-69
2022/10/13 06:11:14;;;;;;;18.58;7.80;;;13.20;84.10;;;;;;5116962;28;20024;-68
2022/10/13 06:13:40;;;;;;;16.27;7.43;;;13.10;84.00;;;;;;5098939;28;20039;-68
2022/10/13 06:16:06;;;;;;;16.63;7.90;;;13.20;84.10;;;;;;5116849;28;20029;-68
2022/10/13 06:18:32;;;;;;;14.55;7.57;;;13.20;84.10;;;;;;5116796;28;20028;-69
2022/10/13 06:20:57;;;;;;;17.17;8.05;;;13.20;84.20;;;;;;5116903;28;20028;-69
2022/10/13 06:23:23;;;;;;;17.65;7.95;;;13.20;84.10;;;;;;5116549;28;20031;-68
2022/10/13 06:25:51;;;;;;;21.20;8.77;;;13.20;84.30;;;;;;5116674;28;20079;-69
2022/10/13 06:28:20;;;;;;;16.67;7.95;;;13.20;84.40;;;;;;5116528;28;20058;-68
2022/10/13 06:30:52;;;;;;;20.17;8.68;;;13.20;84.50;;;;;;5116550;28;20016;-69
2022/10/13 06:33:18;;;;;;;15.70;7.97;;;13.20;84.60;;;;;;5082519;28;20028;-68
2022/10/13 06:35:44;;;;;;;17.80;8.35;;;13.20;84.60;;;;;;5116474;28;20020;-68
2022/10/13 06:38:10;;;;;;;17.85;7.43;;;13.30;84.80;;;;;;5116573;28;20050;-68
2022/10/13 06:40:36;;;;;;;18.45;7.60;;;13.30;84.80;;;;;;5116382;28;20020;-69
2022/10/13 06:43:02;;;;;;;18.90;8.40;;;13.30;84.70;;;;;;5116333;28;20032;-69
2022/10/13 06:45:27;;;;;;;18.73;8.93;;;13.40;84.80;;;;;;5098436;28;20028;-68
2022/10/13 06:47:54;;;;;;;19.20;8.35;;;13.40;84.70;;;;;;5116214;28;20028;-69
2022/10/13 06:50:21;;;;;;;23.50;8.63;;;13.40;84.70;;;;;;5116228;28;20032;-69
2022/10/13 06:52:46;;;;;;;16.65;7.93;;;13.40;84.50;;;;;;5116061;28;20054;-68
2022/10/13 06:55:12;;;;;;;18.55;8.90;;;13.50;84.50;;;;;;5116057;28;20032;-68
2022/10/13 06:57:37;;;;;;;18.30;8.68;;;13.50;84.60;;;;;;5115895;28;20055;-68
2022/10/13 07:00:04;;;;;;;17.25;8.70;;;13.50;84.60;;;;;;5116021;28;20028;-69
2022/10/13 07:02:30;;;;;;;18.60;7.97;;;13.50;84.70;;;;;;5115972;28;20020;-68
2022/10/13 07:04:55;;;;;;;21.02;8.68;;;13.60;84.30;;;;;;5115925;28;20600;-68
2022/10/13 07:07:21;;;;;;;20.80;8.25;;;13.60;84.60;;;;;;5097967;28;20048;-68
2022/10/13 07:09:46;;;;;;;17.63;8.90;;;13.50;84.50;;;;;;5115822;28;20027;-68
2022/10/13 07:12:13;;;;;;;14.90;8.20;;;13.50;84.70;;;;;;5097928;28;20032;-68
2022/10/13 07:14:38;;;;;;;18.98;9.15;;;13.60;84.70;;;;;;5115903;28;20016;-68
2022/10/13 07:17:04;;;;;;;19.77;8.98;;;13.60;84.70;;;;;;5097882;28;20035;-69
2022/10/13 07:19:30;;;;;;;20.33;8.20;;;13.60;84.60;;;;;;5115519;28;20054;-68
2022/10/13 07:21:56;;;;;;;19.58;8.20;;;13.60;84.60;;;;;;5097212;28;20048;-69
2022/10/13 07:24:22;;;;;;;16.65;8.05;;;13.60;84.50;;;;;;5097858;28;20035;-68
2022/10/13 07:26:47;;;;;;;20.42;8.95;;;13.60;84.30;;;;;;5097715;28;20024;-68
2022/10/13 07:29:13;;;;;;;21.65;8.20;;;13.60;84.60;;;;;;5115390;28;20086;-68
2022/10/13 07:31:39;;;;;;;20.33;9.02;;;13.60;84.50;;;;;;5115399;28;20032;-69
2022/10/13 07:34:05;;;;;;;16.73;8.23;;;13.60;84.30;;;;;;5115243;28;20032;-68
2022/10/13 07:36:32;;;;;;;18.95;8.60;;;13.70;84.40;;;;;;5115326;28;20080;-68
2022/10/13 07:39:00;;;;;;;21.40;9.18;;;13.70;84.40;;;;;;5115156;28;20020;-69
2022/10/13 07:41:26;;;;;;;20.90;8.88;;;13.80;84.10;;;;;;5115238;28;20065;-68
2022/10/13 07:44:06;;;;;;;18.40;8.50;;;13.80;84.40;;;;;;5097385;28;20039;-68
2022/10/13 07:46:34;;;;;;;21.30;9.55;;;13.80;84.20;;;;;;5115204;28;20089;-68
2022/10/13 07:49:00;;;;;;;22.25;9.63;;;13.80;84.20;;;;;;5115201;28;20032;-69
2022/10/13 07:51:26;;;;;;;18.98;8.60;;;13.80;84.10;;;;;;5115182;28;20039;-68
2022/10/13 07:53:59;;;;;;;24.05;9.52;;;13.90;84.00;;;;;;5114901;28;20039;-68
2022/10/13 07:56:25;;;;;;;18.50;8.93;;;13.90;84.20;;;;;;5114768;28;20051;-68
2022/10/13 07:58:50;;;;;;;20.60;8.75;;;13.80;84.20;;;;;;5097145;28;20044;-68
2022/10/13 08:01:16;;;;;;;20.73;9.20;;;13.80;84.20;;;;;;5114861;28;20049;-68
2022/10/13 08:03:55;;;;;;;20.90;8.65;;;13.80;84.30;;;;;;5114783;28;20032;-68
2022/10/13 08:06:24;;;;;;;19.73;8.88;;;13.80;84.20;;;;;;5114798;28;20090;-68
2022/10/13 08:08:51;;;;;;;22.30;8.57;;;13.80;84.40;;;;;;5114824;28;20040;-68
2022/10/13 08:11:17;;;;;;;21.73;9.35;;;13.80;84.40;;;;;;5114646;28;20036;-67
2022/10/13 08:13:51;;;;;;;18.90;8.85;;;13.90;84.50;;;;;;5096667;28;20032;-67
2022/10/13 08:16:20;;;;;;;21.85;8.77;;;13.90;84.40;;;;;;5114557;28;20016;-67
2022/10/13 08:18:47;;;;;;;15.85;8.35;;;13.90;84.10;;;;;;5114475;28;20028;-68
2022/10/13 08:21:16;;;;;;;18.90;8.68;;;14.00;84.30;;;;;;5114437;28;20080;-67
2022/10/13 08:23:42;;;;;;;19.73;9.38;;;14.00;84.30;;;;;;5114407;28;20096;-67
2022/10/13 08:26:18;;;;;;;19.88;9.05;;;14.00;84.40;;;;;;5096531;28;20038;-67
2022/10/13 08:28:44;;;;;;;18.92;9.07;;;14.00;84.20;;;;;;5114314;28;20043;-67
2022/10/13 08:31:10;;;;;;;19.88;8.63;;;14.00;84.10;;;;;;5114114;28;20031;-68
2022/10/13 08:33:36;;;;;;;18.25;8.48;;;14.10;84.10;;;;;;5095427;28;20035;-69
2022/10/13 08:36:01;;;;;;;21.20;9.20;;;14.10;83.80;;;;;;5114216;28;20028;-69
2022/10/13 08:38:27;;;;;;;18.23;8.73;;;14.10;83.70;;;;;;5079539;28;20028;-69
2022/10/13 08:40:53;;;;;;;20.45;9.05;;;14.10;83.50;;;;;;5096216;28;20028;-66
2022/10/13 08:43:21;;;;;;;18.88;8.25;;;14.20;83.50;;;;;;5114042;28;20032;-66
2022/10/13 08:45:53;;;;;;;22.08;10.07;;;14.20;83.30;;;;;;5114010;28;20028;-68
2022/10/13 08:48:23;;;;;;;19.08;8.70;;;14.30;83.80;;;;;;5113964;28;20081;-68
2022/10/13 08:50:54;;;;;;;22.30;8.45;;;14.40;83.50;;;;;;5114040;28;20020;-68
2022/10/13 08:53:25;;;;;;;14.60;7.82;;;14.40;83.20;;;;;;5113853;28;20027;-68
2022/10/13 08:55:56;;;;;;;17.60;7.53;;;14.50;83.10;;;;;;5095909;28;20024;-67
2022/10/13 08:58:24;;;;;;;18.38;8.57;;;14.50;82.30;;;;;;5114031;28;20036;-67
2022/10/13 09:01:15;;;;;;;17.63;8.50;;;14.50;82.50;;;;;;5113791;28;20016;-68
2022/10/13 09:03:53;;;;;;;16.58;9.07;;;14.60;82.30;;;;;;5113785;28;20016;-68
2022/10/13 09:06:27;;;;;;;17.30;8.38;;;14.60;82.40;;;;;;5095843;28;20024;-68
2022/10/13 09:08:57;;;;;;;19.50;9.32;;;14.70;82.20;;;;;;5095828;28;20025;-69
2022/10/13 09:11:27;;;;;;;18.73;9.13;;;14.70;81.90;;;;;;5113671;28;20031;-68
2022/10/13 09:13:58;;;;;;;19.08;9.38;;;14.80;82.20;;;;;;5113486;28;20036;-68
2022/10/13 09:16:39;;;;;;;22.90;8.88;;;14.80;81.90;;;;;;5113541;28;20030;-68
2022/10/13 09:19:39;;;;;;;20.35;9.38;;;14.90;81.60;;;;;;5113617;28;20020;-67
2022/10/13 09:22:24;;;;;;;17.52;9.50;;;15.00;82.50;;;;;;5113552;28;20074;-68
2022/10/13 09:25:14;;;;;;;20.73;8.90;;;15.00;81.30;;;;;;5095685;28;20082;-68
2022/10/13 09:27:53;;;;;;;19.55;8.25;;;15.00;81.40;;;;;;5113678;28;20024;-68
2022/10/13 09:30:38;;;;;;;19.15;8.10;;;15.00;81.70;;;;;;5095559;28;20013;-67
2022/10/13 09:33:13;;;;;;;19.35;8.43;;;15.00;81.20;;;;;;5113538;28;20390;-67
2022/10/13 09:35:48;;;;;;;17.98;8.23;;;15.00;81.20;;;;;;5113469;28;20025;-67
2022/10/13 09:38:16;;;;;;;18.92;9.13;;;15.00;81.30;;;;;;5113569;28;20094;-67
2022/10/13 09:40:54;;;;;;;17.35;8.85;;;15.00;81.40;;;;;;5095591;28;20114;-67
2022/10/13 09:43:31;;;;;;;16.50;8.38;;;15.10;81.60;;;;;;5114048;28;20020;-67
2022/10/13 09:45:58;;;;;;;17.67;8.38;;;15.10;81.10;;;;;;5099612;28;20024;-67
2022/10/13 09:48:31;;;;;;;18.45;8.63;;;15.10;81.10;;;;;;5117443;28;20028;-67
2022/10/13 09:50:57;;;;;;;17.75;8.60;;;15.10;80.90;;;;;;5117447;28;20055;-66
2022/10/13 09:53:36;;;;;;;18.98;8.32;;;15.10;80.90;;;;;;5117234;28;20031;-67
2022/10/13 09:56:34;;;;;;;13.93;8.15;;;15.20;81.20;;;;;;5117218;28;20028;-68
2022/10/13 09:59:29;;;;;;;15.50;7.93;;;15.10;81.10;;;;;;5117404;28;20028;-66
2022/10/13 10:01:56;;;;;;;19.13;7.95;;;15.10;80.90;;;;;;5111761;28;20032;-66
2022/10/13 10:04:28;;;;;;;17.05;8.20;;;15.10;80.90;;;;;;5117242;28;20032;-67
2022/10/13 10:06:54;;;;;;;14.85;7.90;;;15.10;81.10;;;;;;5117149;28;20020;-66
2022/10/13 10:09:37;;;;;;;17.75;7.80;;;15.20;81.80;;;;;;5116992;28;20032;-66
2022/10/13 10:12:04;;;;;;;17.65;8.30;;;15.20;80.80;;;;;;5117130;28;20016;-67
2022/10/13 10:14:33;;;;;;;20.42;8.38;;;15.20;80.90;;;;;;5116846;28;20028;-67
2022/10/13 10:17:19;;;;;;;14.93;7.68;;;15.20;80.60;;;;;;5116894;28;20022;-67
2022/10/13 10:20:33;;;;;;;14.05;7.65;;;15.10;80.50;;;;;;5098933;28;20113;-67
2022/10/13 10:23:15;;;;;;;18.95;7.78;;;15.10;80.40;;;;;;5090069;28;20059;-67
2022/10/13 10:25:46;;;;;;;14.98;7.47;;;15.10;80.60;;;;;;5116741;28;20024;-67
2022/10/13 10:28:21;;;;;;;17.73;7.90;;;15.10;80.70;;;;;;5116729;28;20418;-67
2022/10/13 10:31:13;;;;;;;15.43;7.50;;;15.10;80.80;;;;;;5116626;28;20028;-67
2022/10/13 10:33:42;;;;;;;16.73;7.45;;;15.10;80.50;;;;;;5077812;28;20538;-67
2022/10/13 10:36:17;;;;;;;17.00;8.02;;;15.20;80.70;;;;;;5116504;28;20024;-67
2022/10/13 10:38:47;;;;;;;14.18;7.13;;;15.20;80.50;;;;;;5116467;28;20044;-67
2022/10/13 10:41:30;;;;;;;23.23;8.93;;;15.20;80.90;;;;;;5116440;28;20028;-67
2022/10/13 10:44:00;;;;;;;17.20;8.18;;;15.10;80.80;;;;;;5116543;28;20024;-67
2022/10/13 10:46:30;;;;;;;16.75;8.13;;;15.10;80.90;;;;;;5116217;28;20024;-67
2022/10/13 10:49:12;;;;;;;19.70;8.07;;;15.10;81.20;;;;;;5116441;28;20023;-67
2022/10/13 10:51:38;;;;;;;16.15;7.93;;;15.00;81.70;;;;;;5116281;28;20048;-67
2022/10/13 10:54:19;;;;;;;20.27;7.60;;;15.00;81.80;;;;;;5098225;28;20032;-67
2022/10/13 10:56:53;;;;;;;14.27;7.43;;;15.10;82.10;;;;;;5114930;28;20042;-67
2022/10/13 10:59:39;;;;;;;16.75;8.27;;;15.00;82.50;;;;;;5098183;28;20079;-67
2022/10/13 11:02:08;;;;;;;16.98;7.72;;;15.00;82.80;;;;;;5116063;28;20111;-67
2022/10/13 11:04:47;;;;;;;16.88;8.02;;;15.00;82.80;;;;;;5115958;28;20514;-68
2022/10/13 11:07:21;;;;;;;18.83;8.43;;;15.00;83.20;;;;;;5098034;28;20024;-67
2022/10/13 11:09:47;;;;;;;19.30;8.07;;;15.00;83.20;;;;;;5097943;28;20031;-67
2022/10/13 11:12:19;;;;;;;16.33;7.60;;;15.00;83.70;;;;;;5115751;28;20051;-67
2022/10/13 11:14:53;;;;;;;15.48;8.02;;;15.00;83.90;;;;;;5115798;28;20035;-68
2022/10/13 11:17:36;;;;;;;16.08;8.32;;;15.00;83.80;;;;;;5115740;28;20053;-67
2022/10/13 11:20:25;;;;;;;17.00;8.98;;;14.90;83.90;;;;;;5115704;28;20028;-68
2022/10/13 11:22:57;;;;;;;14.38;7.65;;;14.90;84.10;;;;;;5105799;28;20121;-68
2022/10/13 11:25:34;;;;;;;19.67;8.60;;;14.90;84.40;;;;;;5097662;28;20036;-68
2022/10/13 11:28:20;;;;;;;15.43;8.45;;;14.90;84.40;;;;;;5115502;28;20058;-67
2022/10/13 11:30:51;;;;;;;15.40;8.25;;;14.90;84.50;;;;;;5115338;28;20103;-68
2022/10/13 11:33:37;;;;;;;17.42;8.60;;;14.90;84.80;;;;;;5115377;28;20032;-68
2022/10/13 11:36:40;;;;;;;18.60;8.70;;;15.00;84.80;;;;;;5115554;28;20032;-67
2022/10/13 11:39:26;;;;;;;16.13;8.10;;;15.00;85.00;;;;;;5115270;28;20024;-67
2022/10/13 11:42:18;;;;;;;17.00;8.85;;;15.00;85.00;;;;;;5097413;28;20031;-68
2022/10/13 11:45:09;;;;;;;17.25;8.70;;;15.10;85.10;;;;;;5115214;28;20031;-68
2022/10/13 11:47:52;;;;;;;18.13;9.05;;;15.10;85.10;;;;;;5115155;28;20052;-67
2022/10/13 11:50:39;;;;;;;16.85;8.80;;;15.10;85.10;;;;;;5115230;28;20016;-67
2022/10/13 11:53:22;;;;;;;19.90;8.85;;;15.10;85.10;;;;;;5115102;28;20024;-67
2022/10/13 11:55:52;;;;;;;19.88;9.52;;;15.10;85.10;;;;;;5097216;28;20046;-67
2022/10/13 11:58:18;;;;;;;17.60;8.63;;;15.20;85.10;;;;;;5114895;28;20036;-67
2022/10/13 12:00:54;;;;;;;15.02;8.82;;;15.20;85.10;;;;;;5114860;28;20046;-67
2022/10/13 12:03:26;;;;;;;17.10;9.10;;;15.20;86.00;;;;;;5114864;28;20050;-67
2022/10/13 12:05:52;;;;;;;18.00;9.45;;;15.20;85.20;;;;;;5096769;28;20023;-67
2022/10/13 12:08:20;;;;;;;18.02;10.18;;;15.20;85.00;;;;;;5114662;28;20034;-68
2022/10/13 12:10:50;;;;;;;21.20;10.35;;;15.20;85.10;;;;;;5114688;28;20088;-67
2022/10/13 12:13:22;;;;;;;21.83;10.23;;;15.20;85.10;;;;;;5114582;28;20035;-68
2022/10/13 12:15:58;;;;;;;;;;;15.20;85.10;;;;;;5114991;28;20100;-67
2022/10/13 12:18:27;;;;;;;23.02;10.57;;;15.10;85.10;;;;;;5114584;28;19904;-68
2022/10/13 12:21:02;;;;;;;19.90;9.90;;;15.10;85.50;;;;;;5114478;28;20028;-68
2022/10/13 12:23:31;;;;;;;22.13;10.30;;;15.10;85.80;;;;;;5114503;28;20028;-68
2022/10/13 12:25:57;;;;;;;19.23;9.05;;;15.10;86.20;;;;;;5096627;28;20052;-68
2022/10/13 12:28:29;;;;;;;20.25;10.23;;;15.10;86.40;;;;;;5096364;28;20032;-68
2022/10/13 12:30:58;;;;;;;17.52;9.30;;;15.10;86.50;;;;;;5114492;28;20023;-68
2022/10/13 12:33:34;;;;;;;15.18;7.90;;;15.10;87.30;;;;;;5114213;28;20024;-68
2022/10/13 12:36:33;;;;;;;20.05;9.20;;;15.10;87.30;;;;;;5114251;28;20024;-68
2022/10/13 12:39:10;;;;;;;17.95;9.10;;;15.10;87.30;;;;;;5080804;28;20031;-68
2022/10/13 12:41:41;;;;;;;14.95;8.55;;;15.10;87.10;;;;;;5096255;28;20083;-68
2022/10/13 12:44:22;;;;;;;18.50;8.55;;;15.00;88.10;;;;;;5096203;28;20027;-68
2022/10/13 12:46:55;;;;;;;16.65;8.88;;;15.00;88.30;;;;;;5114096;28;20020;-68
2022/10/13 12:49:24;;;;;;;19.55;8.88;;;15.00;87.90;;;;;;5114057;28;20421;-68
2022/10/13 12:52:04;;;;;;;20.38;8.73;;;15.00;88.40;;;;;;5114014;28;20020;-68
2022/10/13 12:54:33;;;;;;;16.65;8.07;;;15.00;88.20;;;;;;5114006;28;20546;-68